createdAt,value
2019-02-12T00:01:03.003Z,8.95
2019-02-12T00:03:32.055Z,8.93
2019-02-12T00:06:01.099Z,8.59
2019-02-12T00:08:30.175Z,8.85
2019-02-12T00:10:59.256Z,8.89
2019-02-12T00:13:28.340Z,9.12
2019-02-12T00:15:57.407Z,9.00
2019-02-12T00:18:26.681Z,9.05
2019-02-12T00:20:55.892Z,10.11
2019-02-12T00:23:24.970Z,9.58
2019-02-12T00:25:54.178Z,8.54
2019-02-12T00:28:23.307Z,8.80
2019-02-12T00:30:53.299Z,8.48
2019-02-12T00:33:22.437Z,8.51
2019-02-12T00:35:51.475Z,8.68
2019-02-12T00:38:20.566Z,8.59
2019-02-12T00:40:49.612Z,8.74
2019-02-12T00:43:18.673Z,8.73
2019-02-12T00:45:47.698Z,9.23
2019-02-12T00:48:16.802Z,9.09
2019-02-12T00:50:45.850Z,8.82
2019-02-12T00:53:14.941Z,8.76
2019-02-12T00:55:43.991Z,8.45
2019-02-12T00:58:13.054Z,8.12
2019-02-12T01:00:42.184Z,8.20
2019-02-12T01:03:11.238Z,7.90
2019-02-12T01:05:40.332Z,7.66
2019-02-12T01:08:09.373Z,7.66
2019-02-12T01:10:38.480Z,7.60
2019-02-12T01:13:07.576Z,8.09
2019-02-12T01:15:36.651Z,7.83
2019-02-12T01:18:05.691Z,7.10
2019-02-12T01:20:34.815Z,7.05
2019-02-12T01:23:03.873Z,7.45
2019-02-12T01:25:32.939Z,7.08
2019-02-12T01:28:01.984Z,7.40
2019-02-12T01:30:31.043Z,7.30
2019-02-12T01:33:00.061Z,7.65
2019-02-12T01:35:29.137Z,6.94
2019-02-12T01:37:58.169Z,7.00
2019-02-12T01:40:27.252Z,7.41
2019-02-12T01:42:56.295Z,6.89
2019-02-12T01:45:25.382Z,7.09
2019-02-12T01:47:54.805Z,7.18
2019-02-12T01:50:23.860Z,7.70
2019-02-12T01:52:53.039Z,7.08
2019-02-12T01:55:22.075Z,6.69
2019-02-12T01:57:51.154Z,6.51
2019-02-12T02:00:20.195Z,7.04
2019-02-12T02:02:49.305Z,7.18
2019-02-12T02:05:18.384Z,7.28
2019-02-12T02:07:47.509Z,7.53
2019-02-12T02:10:18.066Z,7.28
2019-02-12T02:12:47.114Z,7.14
2019-02-12T02:15:16.131Z,7.25
2019-02-12T02:17:45.222Z,7.01
2019-02-12T02:20:14.624Z,7.05
2019-02-12T02:22:43.698Z,6.83
2019-02-12T02:25:12.757Z,7.26
2019-02-12T02:27:41.859Z,7.05
2019-02-12T02:30:12.069Z,6.64
2019-02-12T02:32:41.176Z,7.11
2019-02-12T02:35:10.276Z,7.27
2019-02-12T02:37:39.339Z,7.17
2019-02-12T02:40:08.821Z,7.48
2019-02-12T02:42:37.894Z,7.82
2019-02-12T02:45:08.089Z,7.61
2019-02-12T02:47:37.163Z,7.98
2019-02-12T02:50:06.379Z,8.01
2019-02-12T02:52:35.417Z,7.83
2019-02-12T02:55:04.705Z,7.99
2019-02-12T02:57:33.784Z,7.32
2019-02-12T03:00:02.815Z,7.11
2019-02-12T03:02:31.934Z,6.92
2019-02-12T03:05:00.963Z,7.07
2019-02-12T03:07:30.029Z,7.07
2019-02-12T03:09:59.106Z,6.75
2019-02-12T03:12:28.336Z,6.69
2019-02-12T03:14:57.432Z,6.78
2019-02-12T03:17:26.478Z,6.97
2019-02-12T03:19:55.634Z,7.07
2019-02-12T03:22:24.683Z,6.80
2019-02-12T03:24:53.749Z,6.70
2019-02-12T03:27:23.012Z,6.37
2019-02-12T03:29:52.133Z,6.94
2019-02-12T03:32:21.181Z,6.74
2019-02-12T03:34:50.258Z,6.92
2019-02-12T03:37:19.261Z,6.68
2019-02-12T03:39:49.006Z,6.87
2019-02-12T03:42:18.070Z,6.89
2019-02-12T03:44:47.137Z,7.29
2019-02-12T03:47:16.222Z,7.00
2019-02-12T03:49:45.292Z,7.34
2019-02-12T03:52:14.540Z,7.47
2019-02-12T03:54:43.535Z,7.43
2019-02-12T03:57:12.623Z,7.68
2019-02-12T03:59:41.679Z,7.41
2019-02-12T04:02:10.779Z,7.50
2019-02-12T04:04:39.836Z,7.20
2019-02-12T04:07:08.913Z,7.28
2019-02-12T04:09:37.960Z,7.17
2019-02-12T04:12:07.038Z,6.87
2019-02-12T04:14:36.134Z,7.28
2019-02-12T04:17:05.168Z,7.19
2019-02-12T04:19:34.237Z,6.86
2019-02-12T04:22:03.293Z,7.24
2019-02-12T04:24:32.480Z,6.92
2019-02-12T04:27:01.642Z,7.25
2019-02-12T04:29:30.840Z,7.01
2019-02-12T04:31:59.945Z,7.21
2019-02-12T04:34:29.007Z,7.08
2019-02-12T04:36:58.102Z,7.60
2019-02-12T04:39:27.189Z,7.86
2019-02-12T04:41:56.280Z,7.68
2019-02-12T04:44:25.305Z,7.39
2019-02-12T04:46:54.502Z,7.43
2019-02-12T04:49:23.622Z,7.35
2019-02-12T04:51:52.676Z,7.23
2019-02-12T04:54:21.784Z,7.49
2019-02-12T04:56:50.836Z,7.27
2019-02-12T04:59:19.923Z,7.10
2019-02-12T05:01:49.224Z,7.33
2019-02-12T05:04:18.315Z,7.28
2019-02-12T05:06:47.377Z,7.30
2019-02-12T05:09:19.000Z,7.14
2019-02-12T05:11:51.910Z,7.13
2019-02-12T05:14:20.127Z,7.23
2019-02-12T05:16:49.147Z,7.43
2019-02-12T05:19:18.208Z,6.74
2019-02-12T05:21:47.272Z,6.69
2019-02-12T05:24:16.413Z,6.47
2019-02-12T05:26:45.438Z,6.42
2019-02-12T05:29:14.492Z,6.33
2019-02-12T05:31:43.545Z,6.17
2019-02-12T05:34:12.632Z,6.41
2019-02-12T05:36:41.727Z,6.18
2019-02-12T05:39:10.987Z,6.27
2019-02-12T05:41:40.043Z,6.10
2019-02-12T05:44:09.154Z,6.23
2019-02-12T05:46:38.217Z,6.31
2019-02-12T05:49:07.341Z,6.59
2019-02-12T05:51:36.434Z,6.80
2019-02-12T05:54:05.578Z,7.57
2019-02-12T05:56:34.620Z,7.42
2019-02-12T05:59:03.659Z,7.61
2019-02-12T06:01:32.752Z,7.52
2019-02-12T06:04:01.823Z,7.14
2019-02-12T06:06:30.930Z,7.31
2019-02-12T06:09:00.119Z,7.15
2019-02-12T06:11:29.191Z,8.04
2019-02-12T06:13:58.243Z,7.53
2019-02-12T06:16:27.325Z,7.58
2019-02-12T06:18:56.358Z,7.53
2019-02-12T06:21:25.452Z,7.38
2019-02-12T06:23:54.533Z,7.27
2019-02-12T06:26:23.631Z,7.20
2019-02-12T06:28:52.678Z,7.34
2019-02-12T06:31:21.761Z,7.02
2019-02-12T06:33:50.837Z,7.22
2019-02-12T06:36:21.311Z,7.55
2019-02-12T06:38:50.392Z,7.85
2019-02-12T06:41:19.493Z,7.41
2019-02-12T06:43:48.570Z,7.39
2019-02-12T06:46:17.672Z,7.42
2019-02-12T06:48:46.735Z,7.31
2019-02-12T06:51:15.790Z,7.05
2019-02-12T06:53:44.946Z,6.98
2019-02-12T06:56:14.035Z,7.63
2019-02-12T06:58:43.250Z,7.63
2019-02-12T07:01:12.375Z,7.64
2019-02-12T07:04:05.003Z,7.60
2019-02-12T07:07:20.554Z,7.38
2019-02-12T07:09:59.072Z,7.35
2019-02-12T07:13:12.402Z,7.48
2019-02-12T07:15:45.986Z,7.63
2019-02-12T07:18:50.532Z,7.61
2019-02-12T07:21:32.091Z,7.94
2019-02-12T07:24:40.631Z,8.12
2019-02-12T07:28:00.072Z,8.06
2019-02-12T07:31:18.341Z,8.03
2019-02-12T07:34:27.411Z,7.69
2019-02-12T07:37:49.002Z,7.81
2019-02-12T07:40:56.747Z,8.41
2019-02-12T07:44:13.101Z,8.52
2019-02-12T07:47:20.303Z,8.26
2019-02-12T07:50:20.560Z,8.31
2019-02-12T07:53:13.839Z,8.61
2019-02-12T07:56:23.964Z,8.47
2019-02-12T07:59:11.718Z,8.65
2019-02-12T08:02:33.976Z,8.49
2019-02-12T08:05:48.672Z,8.13
2019-02-12T08:08:47.758Z,8.22
2019-02-12T08:11:38.431Z,8.13
2019-02-12T08:14:31.549Z,8.36
2019-02-12T08:17:26.885Z,8.23
2019-02-12T08:20:31.587Z,8.54
2019-02-12T08:23:41.060Z,8.93
2019-02-12T08:26:27.878Z,8.89
2019-02-12T08:29:37.163Z,9.23
2019-02-12T08:33:05.670Z,8.96
2019-02-12T08:35:57.697Z,8.95
2019-02-12T08:39:05.173Z,9.33
2019-02-12T08:41:58.957Z,9.28
2019-02-12T08:44:42.189Z,9.27
2019-02-12T08:47:37.789Z,9.24
2019-02-12T08:50:41.882Z,9.40
2019-02-12T08:53:50.773Z,9.28
2019-02-12T08:56:46.515Z,9.31
2019-02-12T08:59:30.046Z,9.24
2019-02-12T09:02:20.982Z,9.34
2019-02-12T09:05:28.748Z,9.56
2019-02-12T09:08:40.721Z,9.69
2019-02-12T09:11:54.141Z,9.52
2019-02-12T09:14:37.704Z,9.96
2019-02-12T09:17:29.500Z,10.45
2019-02-12T09:20:30.196Z,10.12
2019-02-12T09:23:39.232Z,10.07
2019-02-12T09:26:55.754Z,10.65
2019-02-12T09:30:11.990Z,10.82
2019-02-12T09:33:09.155Z,10.52
2019-02-12T09:36:10.799Z,9.52
2019-02-12T09:39:19.945Z,9.44
2019-02-12T09:42:01.162Z,9.16
2019-02-12T09:44:58.443Z,9.72
2019-02-12T09:48:07.652Z,9.67
2019-02-12T09:51:30.352Z,9.84
2019-02-12T09:54:46.730Z,9.09
2019-02-12T09:57:53.210Z,9.48
2019-02-12T10:00:45.383Z,10.05
2019-02-12T10:03:46.980Z,9.85
2019-02-12T10:06:38.828Z,9.36
2019-02-12T10:09:57.949Z,9.75
2019-02-12T10:13:01.232Z,10.02
2019-02-12T10:16:07.802Z,9.80
2019-02-12T10:19:08.031Z,10.26
2019-02-12T10:22:01.865Z,10.29
2019-02-12T10:24:42.086Z,10.59
2019-02-12T10:27:44.272Z,10.35
2019-02-12T10:31:03.684Z,10.59
2019-02-12T10:33:32.772Z,9.99
2019-02-12T10:36:01.874Z,10.44
2019-02-12T10:38:30.919Z,10.60
2019-02-12T10:41:00.023Z,10.10
2019-02-12T10:43:29.160Z,10.37
2019-02-12T10:45:58.217Z,10.76
2019-02-12T10:48:27.334Z,10.18
2019-02-12T10:50:56.461Z,10.88
2019-02-12T10:53:25.530Z,10.68
2019-02-12T10:55:54.626Z,10.58
2019-02-12T10:58:23.709Z,10.57
2019-02-12T11:00:52.815Z,10.36
2019-02-12T11:03:21.914Z,10.67
2019-02-12T11:05:51.095Z,11.01
2019-02-12T11:08:20.173Z,11.19
2019-02-12T11:10:49.303Z,11.58
2019-02-12T11:13:18.455Z,11.63
2019-02-12T11:15:47.531Z,11.65
2019-02-12T11:18:16.678Z,11.19
2019-02-12T11:20:45.862Z,11.36
2019-02-12T11:23:14.931Z,11.22
2019-02-12T11:25:44.015Z,11.27
2019-02-12T11:28:13.115Z,11.51
2019-02-12T11:30:42.206Z,11.13
2019-02-12T11:33:11.301Z,11.36
2019-02-12T11:35:40.441Z,11.27
2019-02-12T11:38:09.523Z,11.28
2019-02-12T11:40:38.589Z,11.48
2019-02-12T11:43:07.706Z,11.73
2019-02-12T11:45:36.797Z,11.48
2019-02-12T11:48:05.881Z,11.30
2019-02-12T11:50:34.971Z,11.25
2019-02-12T11:53:04.036Z,11.47
2019-02-12T11:55:33.161Z,11.69
2019-02-12T11:58:02.225Z,11.50
2019-02-12T12:00:39.812Z,11.62
2019-02-12T12:03:08.943Z,11.69
2019-02-12T12:05:39.902Z,11.41
2019-02-12T12:08:09.020Z,11.52
2019-02-12T12:10:38.106Z,11.98
2019-02-12T12:13:07.193Z,11.84
2019-02-12T12:15:36.259Z,11.85
2019-02-12T12:18:05.436Z,12.09
2019-02-12T12:20:34.532Z,11.98
2019-02-12T12:23:03.655Z,12.00
2019-02-12T12:25:32.756Z,12.24
2019-02-12T12:28:01.871Z,12.03
2019-02-12T12:30:30.953Z,13.21
2019-02-12T12:33:00.007Z,12.67
2019-02-12T12:35:29.131Z,12.56
2019-02-12T12:37:58.200Z,12.59
2019-02-12T12:40:27.461Z,13.01
2019-02-12T12:42:56.563Z,12.54
2019-02-12T12:45:25.675Z,12.38
2019-02-12T12:47:54.724Z,12.49
2019-02-12T12:50:23.811Z,12.72
2019-02-12T12:52:52.925Z,12.00
2019-02-12T12:55:22.028Z,12.43
2019-02-12T12:57:51.069Z,12.16
2019-02-12T13:00:20.175Z,12.10
2019-02-12T13:02:49.267Z,11.78
2019-02-12T13:05:18.361Z,11.86
2019-02-12T13:07:47.418Z,11.66
2019-02-12T13:10:16.611Z,12.04
2019-02-12T13:12:45.682Z,11.82
2019-02-12T13:15:14.769Z,12.31
2019-02-12T13:17:43.926Z,12.35
2019-02-12T13:20:14.054Z,12.22
2019-02-12T13:22:43.930Z,11.88
2019-02-12T13:25:13.004Z,12.28
2019-02-12T13:27:42.199Z,12.42
2019-02-12T13:30:13.929Z,12.04
2019-02-12T13:32:43.107Z,12.23
2019-02-12T13:35:12.280Z,11.91
2019-02-12T13:37:41.386Z,11.92
2019-02-12T13:40:11.446Z,11.66
2019-02-12T13:42:40.521Z,11.95
2019-02-12T13:45:11.851Z,11.95
2019-02-12T13:47:41.005Z,11.63
2019-02-12T13:50:10.245Z,11.77
2019-02-12T13:52:39.380Z,11.74
2019-02-12T13:55:16.488Z,12.15
2019-02-12T13:57:39.387Z,12.30
2019-02-12T14:00:11.044Z,12.10
2019-02-12T14:02:40.316Z,12.23
2019-02-12T14:05:12.587Z,12.42
2019-02-12T14:07:41.684Z,12.15
2019-02-12T14:10:12.894Z,12.48
2019-02-12T14:12:42.037Z,11.87
2019-02-12T14:15:11.989Z,12.06
2019-02-12T14:17:41.148Z,12.05
2019-02-12T14:20:12.246Z,12.02
2019-02-12T14:22:41.394Z,11.99
2019-02-12T14:25:10.973Z,12.38
2019-02-12T14:27:40.129Z,11.84
2019-02-12T14:30:11.052Z,12.45
2019-02-12T14:32:40.198Z,11.99
2019-02-12T14:35:10.047Z,12.33
2019-02-12T14:37:39.198Z,12.34
2019-02-12T14:40:09.373Z,11.84
2019-02-12T14:42:38.591Z,12.65
2019-02-12T14:45:09.154Z,12.75
2019-02-12T14:47:38.294Z,12.74
2019-02-12T14:50:09.603Z,12.56
2019-02-12T14:52:38.744Z,12.56
2019-02-12T14:55:07.862Z,12.42
2019-02-12T14:57:37.000Z,12.30
2019-02-12T15:00:07.192Z,12.48
2019-02-12T15:02:36.361Z,12.94
2019-02-12T15:05:05.824Z,12.59
2019-02-12T15:07:34.913Z,12.64
2019-02-12T15:10:04.093Z,13.08
2019-02-12T15:12:33.199Z,12.41
2019-02-12T15:15:02.365Z,11.95
2019-02-12T15:17:31.465Z,12.24
2019-02-12T15:20:00.736Z,11.98
2019-02-12T15:22:29.839Z,12.06
2019-02-12T15:24:58.952Z,12.24
2019-02-12T15:27:28.135Z,12.24
2019-02-12T15:29:57.341Z,12.27
2019-02-12T15:32:26.454Z,12.17
2019-02-12T15:34:55.766Z,12.23
2019-02-12T15:37:24.997Z,11.88
2019-02-12T15:39:55.875Z,11.79
2019-02-12T15:42:25.075Z,11.95
2019-02-12T15:44:54.183Z,11.84
2019-02-12T15:47:23.289Z,12.09
2019-02-12T15:49:52.431Z,11.75
2019-02-12T15:52:21.601Z,11.27
2019-02-12T15:54:50.847Z,11.62
2019-02-12T15:57:19.993Z,11.44
2019-02-12T15:59:49.119Z,11.61
2019-02-12T16:02:18.366Z,11.31
2019-02-12T16:04:48.287Z,11.54
2019-02-12T16:07:20.299Z,11.66
2019-02-12T16:09:49.383Z,11.09
2019-02-12T16:12:18.554Z,11.50
2019-02-12T16:14:53.045Z,11.58
2019-02-12T16:17:22.305Z,11.24
2019-02-12T16:19:51.443Z,11.33
2019-02-12T16:22:20.588Z,11.05
2019-02-12T16:24:49.681Z,11.24
2019-02-12T16:27:18.910Z,10.89
2019-02-12T16:29:50.571Z,11.02
2019-02-12T16:32:19.699Z,11.28
2019-02-12T16:34:48.801Z,11.08
2019-02-12T16:37:17.928Z,10.96
2019-02-12T16:39:47.071Z,10.77
2019-02-12T16:42:17.047Z,10.59
2019-02-12T16:44:46.235Z,10.58
2019-02-12T16:47:15.500Z,10.34
2019-02-12T16:49:44.619Z,10.48
2019-02-12T16:52:20.728Z,10.64
2019-02-12T16:54:45.790Z,10.21
2019-02-12T16:57:15.008Z,9.93
2019-02-12T16:59:44.149Z,10.03
2019-02-12T17:02:13.356Z,10.08
2019-02-12T17:04:44.246Z,10.24
2019-02-12T17:07:15.832Z,10.20
2019-02-12T17:09:52.247Z,10.12
2019-02-12T17:12:18.158Z,10.43
2019-02-12T17:14:47.305Z,10.70
2019-02-12T17:17:16.474Z,10.86
2019-02-12T17:19:45.593Z,10.66
2019-02-12T17:22:14.674Z,10.64
2019-02-12T17:24:44.996Z,10.80
2019-02-12T17:27:14.098Z,10.72
2019-02-12T17:29:43.385Z,11.09
2019-02-12T17:32:12.574Z,10.85
2019-02-12T17:34:41.714Z,10.49
2019-02-12T17:37:10.838Z,10.39
2019-02-12T17:39:39.944Z,10.19
2019-02-12T17:42:09.111Z,10.21
2019-02-12T17:44:38.310Z,10.12
2019-02-12T17:47:07.557Z,9.68
2019-02-12T17:49:36.957Z,9.75
2019-02-12T17:52:06.072Z,9.81
2019-02-12T17:54:35.224Z,9.85
2019-02-12T17:57:04.445Z,10.04
2019-02-12T17:59:33.675Z,10.26
2019-02-12T18:02:02.829Z,10.16
2019-02-12T18:04:32.102Z,10.37
2019-02-12T18:07:01.270Z,10.01
2019-02-12T18:09:30.548Z,9.77
2019-02-12T18:11:59.811Z,9.35
2019-02-12T18:14:29.009Z,9.45
2019-02-12T18:16:58.163Z,9.39
2019-02-12T18:19:27.364Z,9.30
2019-02-12T18:21:56.586Z,9.42
2019-02-12T18:24:25.785Z,9.25
2019-02-12T18:26:55.423Z,9.60
2019-02-12T18:29:24.595Z,9.43
2019-02-12T18:31:53.744Z,9.28
2019-02-12T18:34:22.931Z,9.27
2019-02-12T18:36:52.209Z,9.24
2019-02-12T18:39:21.350Z,9.15
2019-02-12T18:41:51.546Z,9.26
2019-02-12T18:44:20.688Z,9.25
2019-02-12T18:46:49.805Z,9.34
2019-02-12T18:49:18.971Z,9.22
2019-02-12T18:51:48.107Z,9.45
2019-02-12T18:54:17.293Z,9.30
2019-02-12T18:56:46.520Z,9.21
2019-02-12T18:59:15.637Z,9.38
2019-02-12T19:01:45.049Z,9.23
2019-02-12T19:04:14.268Z,9.18
2019-02-12T19:06:43.610Z,9.25
2019-02-12T19:09:14.409Z,9.17
2019-02-12T19:11:52.676Z,9.36
2019-02-12T19:14:14.490Z,9.36
2019-02-12T19:16:43.693Z,9.39
2019-02-12T19:19:12.886Z,9.26
2019-02-12T19:21:41.989Z,9.38
2019-02-12T19:24:11.887Z,8.91
2019-02-12T19:26:41.025Z,9.00
2019-02-12T19:29:10.320Z,8.94
2019-02-12T19:31:39.464Z,8.95
2019-02-12T19:34:09.351Z,9.10
2019-02-12T19:36:38.454Z,8.98
2019-02-12T19:39:07.686Z,8.89
2019-02-12T19:41:36.827Z,8.94
2019-02-12T19:44:06.078Z,9.02
2019-02-12T19:46:35.268Z,9.11
2019-02-12T19:49:04.513Z,9.01
2019-02-12T19:51:33.774Z,8.88
2019-02-12T19:54:03.990Z,8.84
2019-02-12T19:56:33.187Z,8.50
2019-02-12T19:59:02.521Z,8.80
2019-02-12T20:01:31.696Z,8.69
2019-02-12T20:04:01.223Z,8.55
2019-02-12T20:06:31.123Z,8.67
2019-02-12T20:09:00.412Z,8.68
2019-02-12T20:11:29.521Z,8.57
2019-02-12T20:13:58.872Z,8.55
2019-02-12T20:16:28.169Z,8.65
2019-02-12T20:18:58.826Z,8.66
2019-02-12T20:21:28.003Z,8.72
2019-02-12T20:23:57.119Z,8.79
2019-02-12T20:26:26.355Z,8.76
2019-02-12T20:28:55.524Z,8.79
2019-02-12T20:31:24.791Z,8.51
2019-02-12T20:33:57.123Z,8.67
2019-02-12T20:36:25.039Z,8.85
2019-02-12T20:38:54.173Z,8.97
2019-02-12T20:41:23.498Z,9.06
2019-02-12T20:43:52.706Z,8.95
2019-02-12T20:46:24.131Z,8.89
2019-02-12T20:48:52.976Z,8.62
2019-02-12T20:51:22.199Z,8.43
2019-02-12T20:53:51.384Z,8.68
2019-02-12T20:56:23.446Z,8.80
2019-02-12T20:58:52.583Z,8.77
2019-02-12T21:01:22.218Z,8.75
2019-02-12T21:03:51.553Z,8.88
2019-02-12T21:06:20.900Z,10.16
2019-02-12T21:08:50.077Z,10.20
2019-02-12T21:11:19.442Z,9.25
2019-02-12T21:13:48.673Z,9.13
2019-02-12T21:16:17.909Z,9.18
2019-02-12T21:18:47.113Z,8.90
2019-02-12T21:21:16.392Z,8.92
2019-02-12T21:23:45.719Z,9.06
2019-02-12T21:26:14.951Z,8.71
2019-02-12T21:28:44.094Z,9.09
2019-02-12T21:31:13.281Z,8.99
2019-02-12T21:33:42.407Z,9.28
2019-02-12T21:36:11.592Z,8.83
2019-02-12T21:38:40.745Z,9.12
2019-02-12T21:41:11.343Z,9.14
2019-02-12T21:43:41.475Z,8.96
2019-02-12T21:46:10.748Z,8.90
2019-02-12T21:48:40.721Z,9.17
2019-02-12T21:51:09.821Z,9.33
2019-02-12T21:53:39.302Z,9.25
2019-02-12T21:56:08.469Z,9.34
2019-02-12T21:58:39.439Z,8.99
2019-02-12T22:01:08.571Z,9.07
2019-02-12T22:03:37.737Z,9.17
2019-02-12T22:06:06.826Z,9.05
2019-02-12T22:08:35.938Z,9.30
2019-02-12T22:11:05.031Z,9.37
2019-02-12T22:13:34.236Z,9.32
2019-02-12T22:16:03.335Z,9.24
2019-02-12T22:18:32.528Z,8.99
2019-02-12T22:21:01.631Z,9.06
2019-02-12T22:23:30.785Z,8.77
2019-02-12T22:25:59.889Z,9.32
2019-02-12T22:28:29.124Z,8.85
2019-02-12T22:30:58.245Z,9.02
2019-02-12T22:33:27.411Z,8.64
2019-02-12T22:35:56.501Z,9.07
2019-02-12T22:38:33.038Z,9.17
2019-02-12T22:41:02.170Z,9.16
2019-02-12T22:43:31.291Z,9.22
2019-02-12T22:46:00.405Z,9.01
2019-02-12T22:48:29.570Z,8.80
2019-02-12T22:50:59.319Z,9.09
2019-02-12T22:53:28.442Z,9.12
2019-02-12T22:55:57.629Z,8.61
2019-02-12T22:58:26.717Z,8.86
2019-02-12T23:01:01.443Z,8.60
2019-02-12T23:03:30.555Z,8.86
2019-02-12T23:05:59.987Z,8.93
2019-02-12T23:08:29.123Z,8.78
2019-02-12T23:10:58.265Z,8.85
2019-02-12T23:13:27.305Z,8.34
2019-02-12T23:15:56.433Z,8.39
2019-02-12T23:18:25.480Z,8.70
2019-02-12T23:20:54.606Z,8.66
2019-02-12T23:23:23.699Z,8.40
2019-02-12T23:25:52.796Z,8.17
2019-02-12T23:28:21.861Z,8.53
2019-02-12T23:30:51.127Z,8.46
2019-02-12T23:33:20.475Z,8.28
2019-02-12T23:35:49.759Z,8.54
2019-02-12T23:38:19.057Z,8.46
2019-02-12T23:40:48.471Z,8.53
2019-02-12T23:43:17.782Z,8.27
2019-02-12T23:45:47.035Z,8.09
2019-02-12T23:48:16.354Z,8.16
2019-02-12T23:50:45.651Z,8.54
2019-02-12T23:53:14.931Z,8.60
2019-02-12T23:55:44.185Z,8.37
2019-02-12T23:58:13.458Z,8.49
